createdAt,value
2022-11-28T00:01:00.295Z,101214.13
2022-11-28T00:03:35.233Z,101214.60
2022-11-28T00:06:10.275Z,101216.80
2022-11-28T00:08:45.344Z,101218.50
2022-11-28T00:11:20.247Z,101216.10
2022-11-28T00:13:59.291Z,101216.77
2022-11-28T00:16:34.410Z,101214.90
2022-11-28T00:19:14.047Z,101214.70
2022-11-28T00:21:48.921Z,101218.45
2022-11-28T00:24:21.887Z,101213.64
2022-11-28T00:26:54.976Z,101216.71
2022-11-28T00:29:43.092Z,101218.05
2022-11-28T00:32:17.976Z,101214.83
2022-11-28T00:34:52.585Z,101205.29
2022-11-28T00:37:27.542Z,101204.92
2022-11-28T00:40:00.660Z,101205.59
2022-11-28T00:42:39.392Z,101203.23
2022-11-28T00:45:13.882Z,101202.71
2022-11-28T00:48:00.170Z,101204.12
2022-11-28T00:50:33.394Z,101199.57
2022-11-28T00:53:08.097Z,101197.02
2022-11-28T00:55:43.095Z,101195.66
2022-11-28T00:58:18.062Z,101195.36
2022-11-28T01:00:51.408Z,101193.76
2022-11-28T01:03:24.374Z,101192.02
2022-11-28T01:05:59.142Z,101190.80
2022-11-28T01:08:33.795Z,101184.48
2022-11-28T01:11:14.455Z,101181.74
2022-11-28T01:13:47.350Z,101178.95
2022-11-28T01:16:20.534Z,101181.10
2022-11-28T01:18:55.364Z,101179.67
2022-11-28T01:21:30.124Z,101174.95
2022-11-28T01:24:03.175Z,101173.20
2022-11-28T01:26:36.274Z,101171.60
2022-11-28T01:29:11.875Z,101168.34
2022-11-28T01:31:46.675Z,101161.34
2022-11-28T01:34:21.676Z,101159.45
2022-11-28T01:36:56.511Z,101154.67
2022-11-28T01:39:29.493Z,101148.34
2022-11-28T01:42:02.520Z,101147.31
2022-11-28T01:44:35.684Z,101145.60
2022-11-28T01:47:08.868Z,101141.47
2022-11-28T01:49:42.576Z,101134.46
2022-11-28T01:52:20.265Z,101130.89
2022-11-28T01:54:59.261Z,101127.11
2022-11-28T01:57:34.073Z,101125.37
2022-11-28T02:00:17.378Z,101119.91
2022-11-28T02:03:00.020Z,101121.78
2022-11-28T02:05:33.608Z,101115.30
2022-11-28T02:08:10.275Z,101114.45
2022-11-28T02:10:59.949Z,101107.83
2022-11-28T02:13:52.981Z,101104.63
2022-11-28T02:16:34.809Z,101100.33
2022-11-28T02:19:43.271Z,101099.27
2022-11-28T02:22:23.474Z,101091.35
2022-11-28T02:25:24.766Z,101092.52
2022-11-28T02:28:30.016Z,101089.09
2022-11-28T02:31:24.745Z,101096.87
2022-11-28T02:34:01.604Z,101094.27
2022-11-28T02:36:48.163Z,101092.33
2022-11-28T02:40:00.798Z,101089.36
2022-11-28T02:42:55.270Z,101091.52
2022-11-28T02:45:58.612Z,101091.36
2022-11-28T02:48:40.026Z,101092.86
2022-11-28T02:51:28.857Z,101091.65
2022-11-28T02:53:58.910Z,101089.93
2022-11-28T02:56:27.398Z,101093.64
2022-11-28T02:58:55.938Z,101089.17
2022-11-28T03:01:35.021Z,101089.00
2022-11-28T03:04:09.339Z,101086.64
2022-11-28T03:06:52.415Z,101086.27
2022-11-28T03:09:32.768Z,101082.35
2022-11-28T03:12:26.595Z,101082.55
2022-11-28T03:15:06.748Z,101084.92
2022-11-28T03:17:56.002Z,101083.90
2022-11-28T03:20:53.333Z,101082.21
2022-11-28T03:23:43.767Z,101082.38
2022-11-28T03:26:27.022Z,101082.20
2022-11-28T03:29:13.998Z,101078.77
2022-11-28T03:31:57.861Z,101078.71
2022-11-28T03:34:38.793Z,101081.07
2022-11-28T03:37:20.805Z,101079.36
2022-11-28T03:40:02.335Z,101080.71
2022-11-28T03:42:41.884Z,101080.16
2022-11-28T03:45:26.010Z,101073.98
2022-11-28T03:48:04.150Z,101070.35
2022-11-28T03:50:53.519Z,101066.91
2022-11-28T03:53:36.765Z,101064.19
2022-11-28T03:56:39.281Z,101061.11
2022-11-28T03:59:24.781Z,101058.61
2022-11-28T04:02:12.684Z,101057.84
2022-11-28T04:05:02.545Z,101050.58
2022-11-28T04:07:51.033Z,101048.71
2022-11-28T04:10:29.722Z,101050.77
2022-11-28T04:13:20.587Z,101051.42
2022-11-28T04:16:03.988Z,101052.93
2022-11-28T04:19:02.369Z,101046.08
2022-11-28T04:21:35.306Z,101048.59
2022-11-28T04:24:32.202Z,101045.84
2022-11-28T04:27:12.511Z,101047.88
2022-11-28T04:30:03.532Z,101039.84
2022-11-28T04:32:40.784Z,101030.46
2022-11-28T04:35:32.488Z,101023.27
2022-11-28T04:38:03.931Z,101024.44
2022-11-28T04:40:38.781Z,101023.25
2022-11-28T04:43:21.484Z,101025.80
2022-11-28T04:46:05.516Z,101027.84
2022-11-28T04:48:39.132Z,101024.79
2022-11-28T04:51:23.567Z,101022.27
2022-11-28T04:54:15.894Z,101018.36
2022-11-28T04:57:14.791Z,101021.93
2022-11-28T04:59:50.337Z,101020.70
2022-11-28T05:02:26.567Z,101014.55
2022-11-28T05:05:01.542Z,101018.48
2022-11-28T05:07:36.368Z,101011.48
2022-11-28T05:10:13.133Z,101012.31
2022-11-28T05:12:48.022Z,101011.09
2022-11-28T05:15:22.551Z,101012.62
2022-11-28T05:17:57.628Z,101012.59
2022-11-28T05:20:32.875Z,101013.59
2022-11-28T05:23:20.965Z,101013.22
2022-11-28T05:25:54.120Z,101010.66
2022-11-28T05:28:27.220Z,101007.25
2022-11-28T05:31:01.550Z,101011.34
2022-11-28T05:33:34.755Z,101004.13
2022-11-28T05:36:13.555Z,101004.95
2022-11-28T05:38:48.642Z,101003.96
2022-11-28T05:41:28.390Z,101002.96
2022-11-28T05:43:58.538Z,101001.59
2022-11-28T05:46:31.752Z,101004.33
2022-11-28T05:49:04.891Z,100998.71
2022-11-28T05:51:39.611Z,100999.55
2022-11-28T05:54:12.313Z,100997.66
2022-11-28T05:56:42.528Z,100992.89
2022-11-28T05:59:14.727Z,100988.73
2022-11-28T06:01:43.332Z,100991.33
2022-11-28T06:04:12.134Z,100988.95
2022-11-28T06:06:40.559Z,100985.91
2022-11-28T06:09:09.022Z,100986.45
2022-11-28T06:11:37.418Z,100982.74
2022-11-28T06:14:11.199Z,100983.61
2022-11-28T06:16:41.683Z,100986.86
2022-11-28T06:19:13.742Z,100991.80
2022-11-28T06:21:42.468Z,100995.70
2022-11-28T06:24:11.259Z,100992.30
2022-11-28T06:26:44.187Z,100987.42
2022-11-28T06:29:17.270Z,100986.45
2022-11-28T06:31:52.193Z,100983.41
2022-11-28T06:34:21.301Z,100981.73
2022-11-28T06:36:50.107Z,100979.00
2022-11-28T06:39:18.660Z,100976.98
2022-11-28T06:41:47.071Z,100978.00
2022-11-28T06:44:16.626Z,100976.13
2022-11-28T06:46:49.434Z,100974.94
2022-11-28T06:49:23.784Z,100979.71
2022-11-28T06:51:53.319Z,100979.38
2022-11-28T06:54:22.348Z,100978.39
2022-11-28T06:56:50.915Z,100979.77
2022-11-28T06:59:19.454Z,100984.58
2022-11-28T07:01:47.946Z,100983.64
2022-11-28T07:04:16.821Z,100983.52
2022-11-28T07:06:45.247Z,100981.02
2022-11-28T07:09:13.885Z,100981.28
2022-11-28T07:11:42.905Z,100979.56
2022-11-28T07:14:11.727Z,100975.96
2022-11-28T07:16:40.381Z,100979.15
2022-11-28T07:19:11.373Z,100977.02
2022-11-28T07:21:39.798Z,100971.21
2022-11-28T07:24:08.745Z,100972.23
2022-11-28T07:26:38.355Z,100965.02
2022-11-28T07:29:07.755Z,100963.20
2022-11-28T07:31:37.500Z,100960.14
2022-11-28T07:34:06.320Z,100961.66
2022-11-28T07:36:34.721Z,100954.48
2022-11-28T07:39:05.417Z,100951.55
2022-11-28T07:41:33.902Z,100952.02
2022-11-28T07:44:03.944Z,100953.17
2022-11-28T07:46:34.429Z,100959.88
2022-11-28T07:49:04.635Z,100957.98
2022-11-28T07:51:34.130Z,100956.90
2022-11-28T07:54:04.170Z,100955.63
2022-11-28T07:57:04.571Z,100954.13
2022-11-28T07:59:24.287Z,100953.40
2022-11-28T08:01:54.219Z,100959.86
2022-11-28T08:04:23.371Z,100962.19
2022-11-28T08:06:51.918Z,100961.54
2022-11-28T08:09:20.433Z,100958.50
2022-11-28T08:11:51.656Z,100952.95
2022-11-28T08:14:20.675Z,100955.88
2022-11-28T08:16:49.946Z,100953.45
2022-11-28T08:19:22.955Z,100949.57
2022-11-28T08:21:53.432Z,100940.32
2022-11-28T08:24:21.879Z,100939.50
2022-11-28T08:26:50.359Z,100935.52
2022-11-28T08:29:18.847Z,100934.17
2022-11-28T08:31:47.420Z,100932.71
2022-11-28T08:34:15.986Z,100929.00
2022-11-28T08:36:44.388Z,100932.22
2022-11-28T08:39:28.281Z,100925.98
2022-11-28T08:41:57.862Z,100932.86
2022-11-28T08:44:30.322Z,100925.23
2022-11-28T08:47:02.477Z,100927.61
2022-11-28T08:49:31.124Z,100926.06
2022-11-28T08:52:00.176Z,100926.18
2022-11-28T08:54:28.936Z,100924.74
2022-11-28T08:56:57.859Z,100929.10
2022-11-28T08:59:26.355Z,100931.71
2022-11-28T09:01:56.334Z,100930.70
2022-11-28T09:04:24.794Z,100929.19
2022-11-28T09:06:53.605Z,100926.80
2022-11-28T09:09:22.285Z,100924.05
2022-11-28T09:11:50.845Z,100921.31
2022-11-28T09:14:19.264Z,100919.60
2022-11-28T09:16:48.952Z,100920.80
2022-11-28T09:19:17.435Z,100918.05
2022-11-28T09:21:45.850Z,100913.09
2022-11-28T09:24:16.911Z,100919.60
2022-11-28T09:26:45.466Z,100913.60
2022-11-28T09:29:14.016Z,100916.67
2022-11-28T09:31:47.095Z,100914.30
2022-11-28T09:34:16.308Z,100911.37
2022-11-28T09:36:44.764Z,100904.17
2022-11-28T09:39:13.153Z,100905.38
2022-11-28T09:41:54.719Z,100899.89
2022-11-28T09:44:34.116Z,100902.29
2022-11-28T09:47:20.069Z,100898.52
2022-11-28T09:49:52.947Z,100896.98
2022-11-28T09:52:35.737Z,100892.52
2022-11-28T09:55:34.408Z,100892.52
2022-11-28T09:58:19.473Z,100893.20
2022-11-28T10:01:08.403Z,100894.75
2022-11-28T10:04:03.406Z,100887.03
2022-11-28T10:06:43.496Z,100883.61
2022-11-28T10:09:30.745Z,100876.76
2022-11-28T10:12:08.467Z,100871.79
2022-11-28T10:15:00.366Z,100872.48
2022-11-28T10:17:43.337Z,100870.92
2022-11-28T10:20:18.214Z,100871.61
2022-11-28T10:22:52.711Z,100870.58
2022-11-28T10:25:44.528Z,100867.83
2022-11-28T10:28:22.184Z,100867.33
2022-11-28T10:31:04.735Z,100862.67
2022-11-28T10:34:22.216Z,100858.72
2022-11-28T10:37:15.029Z,100858.37
2022-11-28T10:39:45.118Z,100854.59
2022-11-28T10:42:24.212Z,100850.62
2022-11-28T10:45:20.190Z,100850.06
2022-11-28T10:51:12.865Z,100848.90
2022-11-28T10:54:09.967Z,100841.17
2022-11-28T10:56:59.554Z,100841.52
2022-11-28T10:59:37.715Z,100834.23
2022-11-28T11:02:57.001Z,100833.60
2022-11-28T11:05:28.447Z,100830.92
2022-11-28T11:08:02.797Z,100826.82
2022-11-28T11:10:56.812Z,100828.22
2022-11-28T11:13:30.805Z,100826.16
2022-11-28T11:16:10.112Z,100822.05
2022-11-28T11:18:41.557Z,100819.80
2022-11-28T11:21:20.080Z,100816.69
2022-11-28T11:23:50.404Z,100814.94
2022-11-28T11:26:21.757Z,100817.86
2022-11-28T11:28:51.393Z,100813.27
2022-11-28T11:31:30.339Z,100815.50
2022-11-28T11:34:05.153Z,100813.30
2022-11-28T11:36:36.007Z,100811.55
2022-11-28T11:39:08.418Z,100809.50
2022-11-28T11:41:38.661Z,100807.96
2022-11-28T11:44:15.938Z,100811.06
2022-11-28T11:46:52.307Z,100812.08
2022-11-28T11:49:40.620Z,100803.83
2022-11-28T11:52:13.150Z,100810.02
2022-11-28T11:54:47.496Z,100809.16
2022-11-28T11:57:32.714Z,100803.33
2022-11-28T12:00:19.690Z,100803.17
2022-11-28T12:02:59.517Z,100807.28
2022-11-28T12:06:12.244Z,100800.92
2022-11-28T12:08:42.988Z,100798.67
2022-11-28T12:11:15.009Z,100796.61
2022-11-28T12:13:43.622Z,100798.12
2022-11-28T12:16:34.000Z,100791.07
2022-11-28T12:19:32.345Z,100791.92
2022-11-28T12:22:08.802Z,100791.23
2022-11-28T12:25:03.067Z,100785.08
2022-11-28T12:27:50.101Z,100788.65
2022-11-28T12:30:44.928Z,100787.28
2022-11-28T12:33:31.496Z,100787.64
2022-11-28T12:36:18.620Z,100780.62
2022-11-28T12:39:06.269Z,100780.48
2022-11-28T12:41:54.183Z,100775.02
2022-11-28T12:44:33.135Z,100781.71
2022-11-28T12:47:32.400Z,100781.05
2022-11-28T12:50:22.721Z,100777.30
2022-11-28T12:53:18.693Z,100782.42
2022-11-28T12:56:05.119Z,100777.11
2022-11-28T12:58:54.338Z,100776.27
2022-11-28T13:01:28.784Z,100777.28
2022-11-28T13:04:14.352Z,100771.30
2022-11-28T13:06:57.869Z,100772.34
2022-11-28T13:09:50.923Z,100767.88
2022-11-28T13:12:44.056Z,100767.02
2022-11-28T13:15:39.206Z,100760.52
2022-11-28T13:18:38.208Z,100754.67
2022-11-28T13:21:19.104Z,100758.09
2022-11-28T13:24:03.751Z,100758.95
2022-11-28T13:26:52.530Z,100760.48
2022-11-28T13:30:13.507Z,100760.67
2022-11-28T13:33:11.551Z,100762.92
2022-11-28T13:35:47.266Z,100761.90
2022-11-28T13:39:12.731Z,100762.77
2022-11-28T13:47:53.740Z,100768.10
2022-11-28T13:50:36.293Z,100765.38
2022-11-28T13:53:07.845Z,100763.48
2022-11-28T13:55:50.614Z,100764.70
2022-11-28T13:58:31.858Z,100760.75
2022-11-28T14:01:12.513Z,100761.80
2022-11-28T14:03:54.100Z,100766.60
2022-11-28T14:06:40.479Z,100768.33
2022-11-28T14:09:13.193Z,100775.02
2022-11-28T14:12:07.746Z,100772.11
2022-11-28T14:15:21.657Z,100770.56
2022-11-28T14:18:55.805Z,100768.52
2022-11-28T14:21:54.414Z,100764.42
2022-11-28T14:24:47.464Z,100762.35
2022-11-28T14:27:27.072Z,100761.85
2022-11-28T14:30:02.058Z,100761.84
2022-11-28T14:32:36.055Z,100760.46
2022-11-28T14:35:19.097Z,100751.73
2022-11-28T14:37:59.816Z,100755.84
2022-11-28T14:40:50.492Z,100755.83
2022-11-28T14:43:30.792Z,100753.60
2022-11-28T14:46:25.743Z,100746.24
2022-11-28T14:49:00.462Z,100749.99
2022-11-28T14:51:47.791Z,100752.58
2022-11-28T14:54:22.352Z,100752.90
2022-11-28T14:56:58.244Z,100754.09
2022-11-28T14:59:34.561Z,100748.61
2022-11-28T15:02:32.267Z,100748.94
2022-11-28T15:05:30.523Z,100751.33
2022-11-28T15:08:11.265Z,100747.89
2022-11-28T15:10:58.773Z,100749.25
2022-11-28T15:13:54.542Z,100748.05
2022-11-28T15:16:24.371Z,100753.33
2022-11-28T15:19:06.437Z,100756.57
2022-11-28T15:21:45.124Z,100755.38
2022-11-28T15:24:37.687Z,100750.58
2022-11-28T15:27:08.943Z,100750.41
2022-11-28T15:29:37.570Z,100746.46
2022-11-28T15:32:06.560Z,100750.40
2022-11-28T15:34:38.083Z,100748.67
2022-11-28T15:37:15.740Z,100752.77
2022-11-28T15:39:48.391Z,100750.72
2022-11-28T15:42:27.186Z,100754.98
2022-11-28T15:45:35.708Z,100752.41
2022-11-28T15:48:07.807Z,100754.13
2022-11-28T15:50:36.630Z,100753.63
2022-11-28T15:53:17.877Z,100751.08
2022-11-28T15:55:46.912Z,100753.14
2022-11-28T15:58:30.991Z,100748.70
2022-11-28T16:01:10.071Z,100748.88
2022-11-28T16:04:02.550Z,100750.60
2022-11-28T16:06:34.519Z,100754.52
2022-11-28T16:09:07.326Z,100752.30
2022-11-28T16:11:37.108Z,100752.81
2022-11-28T16:14:11.489Z,100756.92
2022-11-28T16:16:40.683Z,100755.21
2022-11-28T16:19:32.373Z,100759.32
2022-11-28T16:22:04.737Z,100754.03
2022-11-28T16:24:44.887Z,100754.55
2022-11-28T16:27:37.870Z,100752.50
2022-11-28T16:30:32.130Z,100753.20
2022-11-28T16:33:01.852Z,100754.22
2022-11-28T16:35:41.667Z,100754.05
2022-11-28T16:38:23.912Z,100756.45
2022-11-28T16:41:03.452Z,100756.96
2022-11-28T16:43:39.768Z,100748.95
2022-11-28T16:46:23.429Z,100745.85
2022-11-28T16:48:58.803Z,100736.45
2022-11-28T16:51:41.578Z,100740.39
2022-11-28T16:54:30.065Z,100739.01
2022-11-28T16:57:14.989Z,100740.90
2022-11-28T16:59:45.857Z,100737.64
2022-11-28T17:02:23.526Z,100738.17
2022-11-28T17:04:55.306Z,100734.92
2022-11-28T17:07:25.425Z,100741.10
2022-11-28T17:09:55.017Z,100742.80
2022-11-28T17:12:24.374Z,100748.63
2022-11-28T17:14:53.552Z,100751.02
2022-11-28T17:17:24.349Z,100750.68
2022-11-28T17:19:53.994Z,100752.55
2022-11-28T17:22:40.967Z,100755.30
2022-11-28T17:25:21.555Z,100749.33
2022-11-28T17:27:51.145Z,100744.02
2022-11-28T17:30:21.862Z,100744.02
2022-11-28T17:32:53.594Z,100742.99
2022-11-28T17:35:25.553Z,100745.91
2022-11-28T17:37:55.617Z,100740.60
2022-11-28T17:40:34.005Z,100744.53
2022-11-28T17:43:05.741Z,100745.73
2022-11-28T17:45:38.378Z,100741.45
2022-11-28T17:48:10.993Z,100748.30
2022-11-28T17:50:45.771Z,100749.67
2022-11-28T17:53:19.609Z,100747.62
2022-11-28T17:56:00.623Z,100745.05
2022-11-28T17:58:31.921Z,100743.16
2022-11-28T18:01:02.180Z,100736.83
2022-11-28T18:03:31.790Z,100735.98
2022-11-28T18:06:01.725Z,100738.71
2022-11-28T18:08:31.107Z,100737.02
2022-11-28T18:11:09.790Z,100734.28
2022-11-28T18:13:43.414Z,100738.72
2022-11-28T18:16:15.500Z,100739.92
2022-11-28T18:18:44.882Z,100741.29
2022-11-28T18:21:19.167Z,100742.15
2022-11-28T18:23:51.371Z,100741.64
2022-11-28T18:26:28.101Z,100740.95
2022-11-28T18:28:58.393Z,100740.11
2022-11-28T18:31:30.100Z,100744.21
2022-11-28T18:34:04.789Z,100741.48
2022-11-28T18:36:36.614Z,100738.22
2022-11-28T18:39:09.366Z,100738.55
2022-11-28T18:41:40.905Z,100739.06
2022-11-28T18:44:12.174Z,100742.67
2022-11-28T18:46:41.737Z,100737.70
2022-11-28T18:49:12.858Z,100740.44
2022-11-28T18:51:43.046Z,100739.77
2022-11-28T18:54:17.643Z,100740.27
2022-11-28T18:56:50.520Z,100745.58
2022-11-28T18:59:21.032Z,100747.11
2022-11-28T19:01:50.934Z,100749.86
2022-11-28T19:04:21.598Z,100746.78
2022-11-28T19:06:50.864Z,100746.25
2022-11-28T19:09:19.660Z,100744.20
2022-11-28T19:11:50.167Z,100744.55
2022-11-28T19:14:22.068Z,100741.31
2022-11-28T19:16:54.918Z,100738.91
2022-11-28T19:19:25.096Z,100735.66
2022-11-28T19:21:55.683Z,100736.85
2022-11-28T19:24:27.495Z,100738.39
2022-11-28T19:26:58.692Z,100738.38
2022-11-28T19:29:30.467Z,100735.99
2022-11-28T19:32:01.717Z,100738.73
2022-11-28T19:34:33.228Z,100737.19
2022-11-28T19:37:04.149Z,100739.77
2022-11-28T19:39:34.717Z,100738.23
2022-11-28T19:42:07.993Z,100734.29
2022-11-28T19:44:38.219Z,100736.52
2022-11-28T19:47:10.939Z,100738.23
2022-11-28T19:49:43.101Z,100738.73
2022-11-28T19:52:12.786Z,100739.92
2022-11-28T19:54:43.356Z,100739.23
2022-11-28T19:57:17.753Z,100735.83
2022-11-28T19:59:56.411Z,100738.05
2022-11-28T20:02:26.404Z,100737.54
2022-11-28T20:04:56.832Z,100738.90
2022-11-28T20:07:26.175Z,100740.29
2022-11-28T20:10:00.246Z,100739.24
2022-11-28T20:12:30.269Z,100741.98
2022-11-28T20:14:59.774Z,100743.00
2022-11-28T20:17:29.672Z,100746.28
2022-11-28T20:19:59.374Z,100744.54
2022-11-28T20:22:32.149Z,100746.95
2022-11-28T20:25:02.133Z,100745.23
2022-11-28T20:27:31.669Z,100740.45
2022-11-28T20:30:07.048Z,100741.63
2022-11-28T20:32:39.174Z,100743.70
2022-11-28T20:35:09.802Z,100737.89
2022-11-28T20:37:40.673Z,100743.87
2022-11-28T20:40:10.711Z,100747.45
2022-11-28T20:42:40.532Z,100745.58
2022-11-28T20:45:10.905Z,100743.70
2022-11-28T20:47:49.697Z,100743.18
2022-11-28T20:50:20.853Z,100739.59
2022-11-28T20:52:50.778Z,100740.61
2022-11-28T20:55:21.151Z,100740.11
2022-11-28T20:57:51.240Z,100741.83
2022-11-28T21:00:26.351Z,100740.45
2022-11-28T21:02:56.793Z,100739.25
2022-11-28T21:05:26.289Z,100737.36
2022-11-28T21:07:55.357Z,100738.55
2022-11-28T21:10:25.265Z,100738.55
2022-11-28T21:12:54.139Z,100734.11
2022-11-28T21:15:23.148Z,100735.31
2022-11-28T21:17:51.871Z,100733.60
2022-11-28T21:20:20.224Z,100732.23
2022-11-28T21:22:48.655Z,100732.40
2022-11-28T21:25:18.026Z,100736.84
2022-11-28T21:27:46.702Z,100740.27
2022-11-28T21:30:15.522Z,100740.61
2022-11-28T21:32:44.001Z,100734.80
2022-11-28T21:35:12.412Z,100732.75
2022-11-28T21:37:40.780Z,100732.75
2022-11-28T21:40:09.837Z,100728.12
2022-11-28T21:42:38.260Z,100727.43
2022-11-28T21:45:07.074Z,100728.13
2022-11-28T21:47:36.601Z,100728.80
2022-11-28T21:50:05.446Z,100727.27
2022-11-28T21:52:33.797Z,100726.77
2022-11-28T21:55:02.164Z,100727.94
2022-11-28T21:57:30.459Z,100730.52
2022-11-28T21:59:59.237Z,100728.13
2022-11-28T22:02:31.003Z,100727.09
2022-11-28T22:05:00.367Z,100729.83
2022-11-28T22:07:28.770Z,100728.79
2022-11-28T22:09:57.150Z,100728.80
2022-11-28T22:12:25.472Z,100726.23
2022-11-28T22:14:53.827Z,100725.90
2022-11-28T22:17:22.181Z,100725.55
2022-11-28T22:19:52.052Z,100723.32
2022-11-28T22:22:20.473Z,100724.00
2022-11-28T22:24:48.853Z,100719.04
2022-11-28T22:27:17.577Z,100722.98
2022-11-28T22:29:46.454Z,100721.61
2022-11-28T22:32:16.700Z,100723.84
2022-11-28T22:34:45.543Z,100729.33
2022-11-28T22:37:14.549Z,100728.80
2022-11-28T22:39:43.147Z,100723.48
2022-11-28T22:42:11.600Z,100724.86
2022-11-28T22:44:40.053Z,100723.14
2022-11-28T22:47:08.544Z,100720.58
2022-11-28T22:49:36.947Z,100722.64
2022-11-28T22:52:05.461Z,100719.72
2022-11-28T22:54:34.113Z,100718.19
2022-11-28T22:57:02.405Z,100719.39
2022-11-28T22:59:33.932Z,100720.75
2022-11-28T23:02:03.568Z,100719.56
2022-11-28T23:04:32.124Z,100716.48
2022-11-28T23:07:00.567Z,100723.67
2022-11-28T23:09:29.016Z,100720.58
2022-11-28T23:11:57.380Z,100722.98
2022-11-28T23:14:25.925Z,100722.98
2022-11-28T23:16:54.466Z,100724.19
2022-11-28T23:19:22.930Z,100721.78
2022-11-28T23:21:51.428Z,100720.41
2022-11-28T23:24:21.833Z,100721.78
2022-11-28T23:26:52.223Z,100722.29
2022-11-28T23:29:21.498Z,100721.77
2022-11-28T23:31:49.960Z,100720.24
2022-11-28T23:34:18.451Z,100722.64
2022-11-28T23:36:47.397Z,100716.98
2022-11-28T23:39:18.873Z,100712.71
2022-11-28T23:41:48.053Z,100712.19
2022-11-28T23:44:18.339Z,100713.39
2022-11-28T23:46:49.709Z,100715.45
2022-11-28T23:49:18.015Z,100716.64
2022-11-28T23:51:46.475Z,100715.96
2022-11-28T23:54:15.094Z,100715.80
2022-11-28T23:56:43.939Z,100718.02
2022-11-28T23:59:13.572Z,100715.95
